sensor_id;sensor_type;location;lat;lon;timestamp;P1;durP1;ratioP1;P2;durP2;ratioP2
79204;SDS011;68632;47.512;19.104;2024-03-23T00:54:51;34.17;;;21.63;;
79204;SDS011;68632;47.512;19.104;2024-03-23T00:55:52;38.17;;;22.75;;
79204;SDS011;68632;47.512;19.104;2024-03-23T00:56:54;39.30;;;22.52;;
79204;SDS011;68632;47.512;19.104;2024-03-23T00:57:55;39.95;;;22.10;;
79204;SDS011;68632;47.512;19.104;2024-03-23T00:58:56;40.53;;;23.42;;
79204;SDS011;68632;47.512;19.104;2024-03-23T00:59:57;42.83;;;24.02;;
79204;SDS011;68632;47.512;19.104;2024-03-23T01:00:58;39.17;;;22.98;;
79204;SDS011;68632;47.512;19.104;2024-03-23T01:02:00;39.47;;;22.00;;
79204;SDS011;68632;47.512;19.104;2024-03-23T01:03:01;43.58;;;24.08;;
79204;SDS011;68632;47.512;19.104;2024-03-23T01:04:02;45.33;;;24.33;;
79204;SDS011;68632;47.512;19.104;2024-03-23T01:05:04;37.78;;;24.15;;
79204;SDS011;68632;47.512;19.104;2024-03-23T01:06:05;43.10;;;23.27;;
79204;SDS011;68632;47.512;19.104;2024-03-23T01:07:06;42.17;;;23.67;;
79204;SDS011;68632;47.512;19.104;2024-03-23T01:08:07;43.45;;;24.80;;
79204;SDS011;68632;47.512;19.104;2024-03-23T01:09:08;41.63;;;24.42;;
79204;SDS011;68632;47.512;19.104;2024-03-23T01:10:11;42.75;;;23.50;;
79204;SDS011;68632;47.512;19.104;2024-03-23T01:11:12;47.25;;;24.40;;
79204;SDS011;68632;47.512;19.104;2024-03-23T01:12:14;41.28;;;24.52;;
79204;SDS011;68632;47.512;19.104;2024-03-23T01:13:15;41.72;;;23.65;;
79204;SDS011;68632;47.512;19.104;2024-03-23T01:14:16;47.00;;;24.60;;
79204;SDS011;68632;47.512;19.104;2024-03-23T01:15:17;38.78;;;23.63;;
79204;SDS011;68632;47.512;19.104;2024-03-23T01:16:18;42.50;;;24.65;;
79204;SDS011;68632;47.512;19.104;2024-03-23T01:17:19;44.75;;;25.67;;
79204;SDS011;68632;47.512;19.104;2024-03-23T01:18:21;38.47;;;23.30;;
79204;SDS011;68632;47.512;19.104;2024-03-23T01:19:22;41.83;;;23.73;;
79204;SDS011;68632;47.512;19.104;2024-03-23T01:20:24;40.17;;;23.60;;
79204;SDS011;68632;47.512;19.104;2024-03-23T01:21:25;42.65;;;25.00;;
79204;SDS011;68632;47.512;19.104;2024-03-23T01:22:26;39.88;;;23.88;;
79204;SDS011;68632;47.512;19.104;2024-03-23T01:23:27;43.03;;;25.25;;
79204;SDS011;68632;47.512;19.104;2024-03-23T01:24:28;41.25;;;24.27;;
79204;SDS011;68632;47.512;19.104;2024-03-23T01:25:29;41.28;;;26.52;;
79204;SDS011;68632;47.512;19.104;2024-03-23T01:26:30;43.17;;;23.95;;
79204;SDS011;68632;47.512;19.104;2024-03-23T01:27:32;38.08;;;23.80;;
79204;SDS011;68632;47.512;19.104;2024-03-23T01:28:33;45.05;;;25.02;;
79204;SDS011;68632;47.512;19.104;2024-03-23T01:29:34;43.60;;;23.85;;
79204;SDS011;68632;47.512;19.104;2024-03-23T01:30:36;43.35;;;25.17;;
79204;SDS011;68632;47.512;19.104;2024-03-23T01:31:37;49.17;;;25.92;;
79204;SDS011;68632;47.512;19.104;2024-03-23T01:32:38;47.17;;;25.20;;
79204;SDS011;68632;47.512;19.104;2024-03-23T01:33:39;44.45;;;24.98;;
79204;SDS011;68632;47.512;19.104;2024-03-23T01:34:40;45.97;;;26.63;;
79204;SDS011;68632;47.512;19.104;2024-03-23T01:35:41;41.17;;;24.13;;
79204;SDS011;68632;47.512;19.104;2024-03-23T01:36:42;42.20;;;24.48;;
79204;SDS011;68632;47.512;19.104;2024-03-23T01:37:44;39.50;;;24.00;;
79204;SDS011;68632;47.512;19.104;2024-03-23T01:38:45;40.30;;;24.75;;
79204;SDS011;68632;47.512;19.104;2024-03-23T01:39:46;41.30;;;23.50;;
79204;SDS011;68632;47.512;19.104;2024-03-23T01:40:48;46.55;;;26.70;;
79204;SDS011;68632;47.512;19.104;2024-03-23T01:41:49;42.47;;;23.95;;
79204;SDS011;68632;47.512;19.104;2024-03-23T01:43:08;41.25;;;24.92;;
79204;SDS011;68632;47.512;19.104;2024-03-23T01:44:09;41.72;;;22.30;;
79204;SDS011;68632;47.512;19.104;2024-03-23T01:45:11;47.03;;;25.05;;
79204;SDS011;68632;47.512;19.104;2024-03-23T01:46:13;43.97;;;25.27;;
79204;SDS011;68632;47.512;19.104;2024-03-23T01:47:14;41.72;;;24.17;;
79204;SDS011;68632;47.512;19.104;2024-03-23T01:48:15;42.47;;;24.65;;
79204;SDS011;68632;47.512;19.104;2024-03-23T01:49:16;42.85;;;25.17;;
79204;SDS011;68632;47.512;19.104;2024-03-23T01:50:18;40.95;;;25.30;;
79204;SDS011;68632;47.512;19.104;2024-03-23T01:51:20;40.83;;;24.10;;
79204;SDS011;68632;47.512;19.104;2024-03-23T01:52:21;46.42;;;24.42;;
79204;SDS011;68632;47.512;19.104;2024-03-23T01:53:22;39.33;;;25.38;;
79204;SDS011;68632;47.512;19.104;2024-03-23T01:54:24;43.10;;;24.10;;
79204;SDS011;68632;47.512;19.104;2024-03-23T01:55:26;42.30;;;23.05;;
79204;SDS011;68632;47.512;19.104;2024-03-23T01:56:28;40.97;;;23.13;;
79204;SDS011;68632;47.512;19.104;2024-03-23T01:57:34;37.53;;;23.10;;
79204;SDS011;68632;47.512;19.104;2024-03-23T01:58:35;44.72;;;25.58;;
79204;SDS011;68632;47.512;19.104;2024-03-23T01:59:36;40.75;;;24.15;;
79204;SDS011;68632;47.512;19.104;2024-03-23T02:00:37;45.35;;;23.98;;
79204;SDS011;68632;47.512;19.104;2024-03-23T02:01:39;41.75;;;24.85;;
79204;SDS011;68632;47.512;19.104;2024-03-23T02:02:46;40.95;;;24.70;;
79204;SDS011;68632;47.512;19.104;2024-03-23T02:03:47;40.20;;;23.85;;
79204;SDS011;68632;47.512;19.104;2024-03-23T02:04:48;44.00;;;24.73;;
79204;SDS011;68632;47.512;19.104;2024-03-23T02:05:49;40.10;;;23.98;;
79204;SDS011;68632;47.512;19.104;2024-03-23T02:06:51;41.45;;;24.27;;
79204;SDS011;68632;47.512;19.104;2024-03-23T02:07:52;41.60;;;24.63;;
79204;SDS011;68632;47.512;19.104;2024-03-23T02:08:54;43.55;;;24.13;;
79204;SDS011;68632;47.512;19.104;2024-03-23T02:09:56;43.38;;;25.20;;
79204;SDS011;68632;47.512;19.104;2024-03-23T02:10:57;37.33;;;23.73;;
79204;SDS011;68632;47.512;19.104;2024-03-23T02:12:01;43.17;;;23.80;;
79204;SDS011;68632;47.512;19.104;2024-03-23T02:13:03;40.35;;;24.73;;
79204;SDS011;68632;47.512;19.104;2024-03-23T02:14:04;39.92;;;24.50;;
79204;SDS011;68632;47.512;19.104;2024-03-23T02:15:05;44.88;;;24.27;;
79204;SDS011;68632;47.512;19.104;2024-03-23T02:16:07;41.50;;;24.05;;
79204;SDS011;68632;47.512;19.104;2024-03-23T02:17:08;45.08;;;24.20;;
79204;SDS011;68632;47.512;19.104;2024-03-23T02:18:10;40.53;;;23.38;;
79204;SDS011;68632;47.512;19.104;2024-03-23T02:19:11;44.72;;;24.13;;
79204;SDS011;68632;47.512;19.104;2024-03-23T02:20:12;39.92;;;23.10;;
79204;SDS011;68632;47.512;19.104;2024-03-23T02:21:15;43.70;;;25.13;;
79204;SDS011;68632;47.512;19.104;2024-03-23T02:22:16;44.13;;;23.73;;
79204;SDS011;68632;47.512;19.104;2024-03-23T02:23:17;42.42;;;24.77;;
79204;SDS011;68632;47.512;19.104;2024-03-23T02:24:19;43.17;;;24.05;;
79204;SDS011;68632;47.512;19.104;2024-03-23T02:25:20;40.05;;;23.02;;
79204;SDS011;68632;47.512;19.104;2024-03-23T02:26:21;39.63;;;22.42;;
79204;SDS011;68632;47.512;19.104;2024-03-23T02:27:22;44.15;;;24.02;;
79204;SDS011;68632;47.512;19.104;2024-03-23T02:28:25;42.20;;;23.90;;
79204;SDS011;68632;47.512;19.104;2024-03-23T02:29:26;44.70;;;24.73;;
79204;SDS011;68632;47.512;19.104;2024-03-23T02:30:27;38.58;;;24.52;;
79204;SDS011;68632;47.512;19.104;2024-03-23T02:31:28;42.83;;;23.38;;
79204;SDS011;68632;47.512;19.104;2024-03-23T02:32:30;41.97;;;24.15;;
79204;SDS011;68632;47.512;19.104;2024-03-23T02:33:31;41.70;;;24.08;;
79204;SDS011;68632;47.512;19.104;2024-03-23T02:34:33;41.72;;;23.95;;
79204;SDS011;68632;47.512;19.104;2024-03-23T02:35:34;41.50;;;22.90;;
79204;SDS011;68632;47.512;19.104;2024-03-23T02:36:35;42.38;;;24.73;;
79204;SDS011;68632;47.512;19.104;2024-03-23T02:37:37;46.38;;;26.85;;
79204;SDS011;68632;47.512;19.104;2024-03-23T02:38:38;45.05;;;26.35;;
79204;SDS011;68632;47.512;19.104;2024-03-23T02:39:39;41.05;;;25.05;;
79204;SDS011;68632;47.512;19.104;2024-03-23T02:40:40;41.80;;;24.20;;
79204;SDS011;68632;47.512;19.104;2024-03-23T02:41:41;49.75;;;25.17;;
79204;SDS011;68632;47.512;19.104;2024-03-23T02:42:43;40.95;;;23.98;;
79204;SDS011;68632;47.512;19.104;2024-03-23T02:43:44;46.80;;;24.38;;
79204;SDS011;68632;47.512;19.104;2024-03-23T02:44:45;42.85;;;24.58;;
79204;SDS011;68632;47.512;19.104;2024-03-23T02:45:47;43.17;;;24.88;;
79204;SDS011;68632;47.512;19.104;2024-03-23T02:46:48;43.50;;;26.50;;
79204;SDS011;68632;47.512;19.104;2024-03-23T02:47:50;41.53;;;24.15;;
79204;SDS011;68632;47.512;19.104;2024-03-23T02:48:52;37.97;;;24.67;;
79204;SDS011;68632;47.512;19.104;2024-03-23T02:49:53;40.25;;;24.00;;
79204;SDS011;68632;47.512;19.104;2024-03-23T02:50:55;45.47;;;24.98;;
79204;SDS011;68632;47.512;19.104;2024-03-23T02:51:56;39.60;;;24.88;;
79204;SDS011;68632;47.512;19.104;2024-03-23T02:52:57;40.63;;;25.38;;
79204;SDS011;68632;47.512;19.104;2024-03-23T02:53:59;42.50;;;25.25;;
79204;SDS011;68632;47.512;19.104;2024-03-23T02:55:00;41.10;;;23.98;;
79204;SDS011;68632;47.512;19.104;2024-03-23T02:56:02;42.05;;;25.38;;
79204;SDS011;68632;47.512;19.104;2024-03-23T02:57:04;43.08;;;24.15;;
79204;SDS011;68632;47.512;19.104;2024-03-23T02:58:05;39.75;;;25.70;;
79204;SDS011;68632;47.512;19.104;2024-03-23T02:59:06;37.63;;;23.65;;
79204;SDS011;68632;47.512;19.104;2024-03-23T03:00:08;43.22;;;25.35;;
79204;SDS011;68632;47.512;19.104;2024-03-23T03:01:10;44.97;;;27.00;;
79204;SDS011;68632;47.512;19.104;2024-03-23T03:02:11;40.17;;;24.25;;
79204;SDS011;68632;47.512;19.104;2024-03-23T03:03:13;39.45;;;23.80;;
79204;SDS011;68632;47.512;19.104;2024-03-23T03:04:14;42.47;;;24.67;;
79204;SDS011;68632;47.512;19.104;2024-03-23T03:05:15;40.42;;;23.80;;
79204;SDS011;68632;47.512;19.104;2024-03-23T03:06:23;43.63;;;25.27;;
79204;SDS011;68632;47.512;19.104;2024-03-23T03:07:25;38.50;;;23.85;;
79204;SDS011;68632;47.512;19.104;2024-03-23T03:08:26;41.53;;;24.63;;
79204;SDS011;68632;47.512;19.104;2024-03-23T03:09:27;41.90;;;24.73;;
79204;SDS011;68632;47.512;19.104;2024-03-23T03:10:28;38.83;;;23.52;;
79204;SDS011;68632;47.512;19.104;2024-03-23T03:11:31;41.88;;;25.15;;
79204;SDS011;68632;47.512;19.104;2024-03-23T03:12:32;36.63;;;23.30;;
79204;SDS011;68632;47.512;19.104;2024-03-23T03:13:33;40.45;;;24.23;;
79204;SDS011;68632;47.512;19.104;2024-03-23T03:14:35;42.63;;;25.17;;
79204;SDS011;68632;47.512;19.104;2024-03-23T03:15:36;42.08;;;25.13;;
79204;SDS011;68632;47.512;19.104;2024-03-23T03:16:37;40.25;;;24.77;;
79204;SDS011;68632;47.512;19.104;2024-03-23T03:17:38;39.67;;;24.40;;
79204;SDS011;68632;47.512;19.104;2024-03-23T03:18:39;37.08;;;24.55;;
79204;SDS011;68632;47.512;19.104;2024-03-23T03:19:41;43.40;;;24.77;;
79204;SDS011;68632;47.512;19.104;2024-03-23T03:20:43;36.58;;;25.27;;
79204;SDS011;68632;47.512;19.104;2024-03-23T03:21:44;41.80;;;24.65;;
79204;SDS011;68632;47.512;19.104;2024-03-23T03:22:45;40.58;;;25.33;;
79204;SDS011;68632;47.512;19.104;2024-03-23T03:23:47;39.25;;;24.60;;
79204;SDS011;68632;47.512;19.104;2024-03-23T03:24:51;37.25;;;24.33;;
79204;SDS011;68632;47.512;19.104;2024-03-23T03:25:52;39.03;;;23.70;;
79204;SDS011;68632;47.512;19.104;2024-03-23T03:26:53;37.70;;;23.75;;
79204;SDS011;68632;47.512;19.104;2024-03-23T03:27:54;38.17;;;23.33;;
79204;SDS011;68632;47.512;19.104;2024-03-23T03:28:55;42.17;;;23.55;;
79204;SDS011;68632;47.512;19.104;2024-03-23T03:29:56;40.55;;;25.02;;
79204;SDS011;68632;47.512;19.104;2024-03-23T03:30:59;36.90;;;23.92;;
79204;SDS011;68632;47.512;19.104;2024-03-23T03:32:00;34.63;;;23.15;;
79204;SDS011;68632;47.512;19.104;2024-03-23T03:33:02;38.83;;;24.42;;
79204;SDS011;68632;47.512;19.104;2024-03-23T03:34:03;39.45;;;25.77;;
79204;SDS011;68632;47.512;19.104;2024-03-23T03:35:04;39.85;;;23.17;;
79204;SDS011;68632;47.512;19.104;2024-03-23T03:36:06;38.95;;;23.88;;
79204;SDS011;68632;47.512;19.104;2024-03-23T03:37:07;36.38;;;23.92;;
79204;SDS011;68632;47.512;19.104;2024-03-23T03:38:08;36.58;;;23.52;;
79204;SDS011;68632;47.512;19.104;2024-03-23T03:39:09;39.40;;;24.15;;
79204;SDS011;68632;47.512;19.104;2024-03-23T03:40:11;37.60;;;24.52;;
79204;SDS011;68632;47.512;19.104;2024-03-23T03:41:13;37.67;;;25.40;;
79204;SDS011;68632;47.512;19.104;2024-03-23T03:42:14;40.22;;;24.63;;
79204;SDS011;68632;47.512;19.104;2024-03-23T03:43:15;37.00;;;23.60;;
79204;SDS011;68632;47.512;19.104;2024-03-23T03:44:17;39.30;;;25.38;;
79204;SDS011;68632;47.512;19.104;2024-03-23T03:45:18;37.35;;;23.10;;
79204;SDS011;68632;47.512;19.104;2024-03-23T03:46:19;42.35;;;24.20;;
79204;SDS011;68632;47.512;19.104;2024-03-23T03:47:20;37.25;;;23.77;;
79204;SDS011;68632;47.512;19.104;2024-03-23T03:48:21;39.28;;;24.05;;
79204;SDS011;68632;47.512;19.104;2024-03-23T03:49:23;34.08;;;22.80;;
79204;SDS011;68632;47.512;19.104;2024-03-23T03:50:24;39.47;;;23.60;;
79204;SDS011;68632;47.512;19.104;2024-03-23T03:51:26;36.45;;;23.48;;
79204;SDS011;68632;47.512;19.104;2024-03-23T03:52:27;45.13;;;24.00;;
79204;SDS011;68632;47.512;19.104;2024-03-23T03:53:28;45.05;;;25.63;;
79204;SDS011;68632;47.512;19.104;2024-03-23T03:54:29;40.67;;;24.30;;
79204;SDS011;68632;47.512;19.104;2024-03-23T03:55:30;42.40;;;25.40;;
79204;SDS011;68632;47.512;19.104;2024-03-23T03:56:31;38.85;;;23.92;;
79204;SDS011;68632;47.512;19.104;2024-03-23T03:57:33;38.38;;;24.23;;
79204;SDS011;68632;47.512;19.104;2024-03-23T03:58:34;38.55;;;24.63;;
79204;SDS011;68632;47.512;19.104;2024-03-23T03:59:36;34.58;;;23.08;;
79204;SDS011;68632;47.512;19.104;2024-03-23T04:00:37;40.17;;;24.42;;
79204;SDS011;68632;47.512;19.104;2024-03-23T04:01:38;37.38;;;23.38;;
79204;SDS011;68632;47.512;19.104;2024-03-23T04:02:39;38.85;;;23.25;;
79204;SDS011;68632;47.512;19.104;2024-03-23T04:03:42;41.05;;;24.13;;
79204;SDS011;68632;47.512;19.104;2024-03-23T04:04:44;35.22;;;23.20;;
79204;SDS011;68632;47.512;19.104;2024-03-23T04:05:52;38.78;;;23.92;;
79204;SDS011;68632;47.512;19.104;2024-03-23T04:07:00;37.65;;;24.25;;
79204;SDS011;68632;47.512;19.104;2024-03-23T04:08:01;39.63;;;22.63;;
79204;SDS011;68632;47.512;19.104;2024-03-23T04:09:03;39.35;;;22.23;;
79204;SDS011;68632;47.512;19.104;2024-03-23T04:10:04;35.80;;;22.85;;
79204;SDS011;68632;47.512;19.104;2024-03-23T04:11:08;34.33;;;22.70;;
79204;SDS011;68632;47.512;19.104;2024-03-23T04:12:09;36.13;;;21.98;;
79204;SDS011;68632;47.512;19.104;2024-03-23T04:13:11;36.95;;;22.35;;
79204;SDS011;68632;47.512;19.104;2024-03-23T04:14:12;35.72;;;21.55;;
79204;SDS011;68632;47.512;19.104;2024-03-23T04:15:14;33.97;;;21.15;;
79204;SDS011;68632;47.512;19.104;2024-03-23T04:16:26;38.97;;;23.55;;
79204;SDS011;68632;47.512;19.104;2024-03-23T04:17:30;33.92;;;22.13;;
79204;SDS011;68632;47.512;19.104;2024-03-23T04:18:35;36.65;;;23.52;;
79204;SDS011;68632;47.512;19.104;2024-03-23T04:19:36;38.33;;;23.52;;
79204;SDS011;68632;47.512;19.104;2024-03-23T04:20:37;35.22;;;23.10;;
79204;SDS011;68632;47.512;19.104;2024-03-23T04:21:38;35.33;;;21.67;;
79204;SDS011;68632;47.512;19.104;2024-03-23T04:22:40;37.85;;;24.60;;
79204;SDS011;68632;47.512;19.104;2024-03-23T04:23:41;41.10;;;22.38;;
79204;SDS011;68632;47.512;19.104;2024-03-23T04:24:42;35.40;;;22.67;;
79204;SDS011;68632;47.512;19.104;2024-03-23T04:25:44;37.00;;;21.38;;
79204;SDS011;68632;47.512;19.104;2024-03-23T04:26:45;36.78;;;22.35;;
79204;SDS011;68632;47.512;19.104;2024-03-23T04:27:46;37.80;;;23.88;;
79204;SDS011;68632;47.512;19.104;2024-03-23T04:28:48;36.40;;;22.55;;
79204;SDS011;68632;47.512;19.104;2024-03-23T04:29:52;32.00;;;20.80;;
79204;SDS011;68632;47.512;19.104;2024-03-23T04:30:56;32.70;;;21.50;;
79204;SDS011;68632;47.512;19.104;2024-03-23T04:31:57;34.38;;;21.92;;
79204;SDS011;68632;47.512;19.104;2024-03-23T04:32:58;35.85;;;22.02;;
79204;SDS011;68632;47.512;19.104;2024-03-23T04:34:01;34.10;;;22.42;;
79204;SDS011;68632;47.512;19.104;2024-03-23T04:35:03;33.65;;;21.33;;
79204;SDS011;68632;47.512;19.104;2024-03-23T04:36:10;32.88;;;21.02;;
79204;SDS011;68632;47.512;19.104;2024-03-23T04:37:11;39.50;;;22.42;;
79204;SDS011;68632;47.512;19.104;2024-03-23T04:38:12;32.72;;;19.88;;
79204;SDS011;68632;47.512;19.104;2024-03-23T04:39:14;34.67;;;22.15;;
79204;SDS011;68632;47.512;19.104;2024-03-23T04:40:15;35.28;;;22.38;;
79204;SDS011;68632;47.512;19.104;2024-03-23T04:41:16;32.70;;;20.27;;
79204;SDS011;68632;47.512;19.104;2024-03-23T04:42:17;34.40;;;22.13;;
79204;SDS011;68632;47.512;19.104;2024-03-23T04:43:18;36.67;;;22.63;;
79204;SDS011;68632;47.512;19.104;2024-03-23T04:44:20;35.80;;;22.83;;
79204;SDS011;68632;47.512;19.104;2024-03-23T04:45:21;32.08;;;22.20;;
79204;SDS011;68632;47.512;19.104;2024-03-23T04:46:22;33.70;;;21.92;;
79204;SDS011;68632;47.512;19.104;2024-03-23T04:47:23;30.55;;;20.92;;
79204;SDS011;68632;47.512;19.104;2024-03-23T04:48:24;34.03;;;20.95;;
79204;SDS011;68632;47.512;19.104;2024-03-23T04:49:26;32.17;;;20.27;;
79204;SDS011;68632;47.512;19.104;2024-03-23T04:50:27;33.22;;;21.65;;
79204;SDS011;68632;47.512;19.104;2024-03-23T04:51:28;33.42;;;20.98;;
79204;SDS011;68632;47.512;19.104;2024-03-23T04:52:36;32.60;;;21.35;;
79204;SDS011;68632;47.512;19.104;2024-03-23T04:53:37;31.85;;;19.45;;
79204;SDS011;68632;47.512;19.104;2024-03-23T04:54:39;32.20;;;18.48;;
79204;SDS011;68632;47.512;19.104;2024-03-23T04:55:43;34.53;;;20.63;;
79204;SDS011;68632;47.512;19.104;2024-03-23T04:56:45;35.03;;;20.40;;
79204;SDS011;68632;47.512;19.104;2024-03-23T04:57:46;32.47;;;22.30;;
79204;SDS011;68632;47.512;19.104;2024-03-23T04:58:47;32.70;;;20.58;;
79204;SDS011;68632;47.512;19.104;2024-03-23T04:59:49;32.70;;;20.90;;
79204;SDS011;68632;47.512;19.104;2024-03-23T05:00:56;35.33;;;21.05;;
79204;SDS011;68632;47.512;19.104;2024-03-23T05:01:58;33.70;;;21.83;;
79204;SDS011;68632;47.512;19.104;2024-03-23T05:02:59;33.85;;;19.90;;
79204;SDS011;68632;47.512;19.104;2024-03-23T05:04:00;33.75;;;21.08;;
79204;SDS011;68632;47.512;19.104;2024-03-23T05:05:02;37.25;;;21.58;;
79204;SDS011;68632;47.512;19.104;2024-03-23T05:06:03;33.65;;;20.58;;
79204;SDS011;68632;47.512;19.104;2024-03-23T05:07:06;31.23;;;19.48;;
79204;SDS011;68632;47.512;19.104;2024-03-23T05:08:07;36.83;;;22.02;;
79204;SDS011;68632;47.512;19.104;2024-03-23T05:09:08;32.58;;;20.92;;
79204;SDS011;68632;47.512;19.104;2024-03-23T05:10:12;32.83;;;20.25;;
79204;SDS011;68632;47.512;19.104;2024-03-23T05:11:14;31.63;;;20.88;;
79204;SDS011;68632;47.512;19.104;2024-03-23T05:12:16;36.90;;;21.42;;
79204;SDS011;68632;47.512;19.104;2024-03-23T05:13:17;36.15;;;21.42;;
79204;SDS011;68632;47.512;19.104;2024-03-23T05:14:19;32.53;;;20.38;;
79204;SDS011;68632;47.512;19.104;2024-03-23T05:15:20;35.83;;;21.88;;
79204;SDS011;68632;47.512;19.104;2024-03-23T05:16:21;33.33;;;21.23;;
79204;SDS011;68632;47.512;19.104;2024-03-23T05:17:22;31.45;;;19.92;;
79204;SDS011;68632;47.512;19.104;2024-03-23T05:18:23;31.73;;;21.02;;
79204;SDS011;68632;47.512;19.104;2024-03-23T05:19:27;35.78;;;21.27;;
79204;SDS011;68632;47.512;19.104;2024-03-23T05:20:28;33.47;;;21.40;;
79204;SDS011;68632;47.512;19.104;2024-03-23T05:21:29;32.88;;;21.17;;
79204;SDS011;68632;47.512;19.104;2024-03-23T05:22:30;33.58;;;20.48;;
79204;SDS011;68632;47.512;19.104;2024-03-23T05:23:32;32.17;;;20.45;;
79204;SDS011;68632;47.512;19.104;2024-03-23T05:24:33;33.22;;;20.10;;
79204;SDS011;68632;47.512;19.104;2024-03-23T05:25:34;35.15;;;21.27;;
79204;SDS011;68632;47.512;19.104;2024-03-23T05:26:35;33.40;;;20.10;;
79204;SDS011;68632;47.512;19.104;2024-03-23T05:27:36;36.88;;;21.15;;
79204;SDS011;68632;47.512;19.104;2024-03-23T05:28:37;34.70;;;22.27;;
79204;SDS011;68632;47.512;19.104;2024-03-23T05:29:39;33.35;;;20.30;;
79204;SDS011;68632;47.512;19.104;2024-03-23T05:30:40;33.20;;;21.20;;
79204;SDS011;68632;47.512;19.104;2024-03-23T05:31:41;44.70;;;21.05;;
79204;SDS011;68632;47.512;19.104;2024-03-23T05:32:42;32.08;;;21.10;;
79204;SDS011;68632;47.512;19.104;2024-03-23T05:33:43;31.75;;;20.45;;
79204;SDS011;68632;47.512;19.104;2024-03-23T05:34:45;32.35;;;20.40;;
79204;SDS011;68632;47.512;19.104;2024-03-23T05:35:47;35.40;;;20.67;;
79204;SDS011;68632;47.512;19.104;2024-03-23T05:36:48;32.65;;;20.17;;
79204;SDS011;68632;47.512;19.104;2024-03-23T05:37:50;33.72;;;20.15;;
79204;SDS011;68632;47.512;19.104;2024-03-23T05:38:51;34.40;;;21.60;;
79204;SDS011;68632;47.512;19.104;2024-03-23T05:39:52;37.22;;;21.95;;
79204;SDS011;68632;47.512;19.104;2024-03-23T05:40:57;33.92;;;19.95;;
79204;SDS011;68632;47.512;19.104;2024-03-23T05:41:59;34.70;;;19.98;;
79204;SDS011;68632;47.512;19.104;2024-03-23T05:43:00;30.33;;;20.35;;
79204;SDS011;68632;47.512;19.104;2024-03-23T05:44:02;35.70;;;21.30;;
79204;SDS011;68632;47.512;19.104;2024-03-23T05:45:03;32.85;;;20.58;;
79204;SDS011;68632;47.512;19.104;2024-03-23T05:46:07;34.95;;;20.60;;
79204;SDS011;68632;47.512;19.104;2024-03-23T05:47:09;33.42;;;20.75;;
79204;SDS011;68632;47.512;19.104;2024-03-23T05:48:10;33.20;;;20.67;;
79204;SDS011;68632;47.512;19.104;2024-03-23T05:49:12;36.83;;;22.23;;
79204;SDS011;68632;47.512;19.104;2024-03-23T05:50:13;32.30;;;20.75;;
79204;SDS011;68632;47.512;19.104;2024-03-23T05:51:14;34.05;;;20.33;;
79204;SDS011;68632;47.512;19.104;2024-03-23T05:52:16;39.28;;;20.67;;
79204;SDS011;68632;47.512;19.104;2024-03-23T05:53:18;35.40;;;22.38;;
79204;SDS011;68632;47.512;19.104;2024-03-23T05:54:21;32.28;;;22.80;;
79204;SDS011;68632;47.512;19.104;2024-03-23T05:55:22;30.58;;;20.20;;
79204;SDS011;68632;47.512;19.104;2024-03-23T05:56:23;34.75;;;22.10;;
79204;SDS011;68632;47.512;19.104;2024-03-23T05:57:26;32.65;;;21.25;;
79204;SDS011;68632;47.512;19.104;2024-03-23T05:58:27;34.53;;;21.15;;
79204;SDS011;68632;47.512;19.104;2024-03-23T05:59:29;35.70;;;20.98;;
79204;SDS011;68632;47.512;19.104;2024-03-23T06:00:30;31.02;;;21.02;;
79204;SDS011;68632;47.512;19.104;2024-03-23T06:01:31;34.85;;;20.35;;
79204;SDS011;68632;47.512;19.104;2024-03-23T06:02:33;36.03;;;21.58;;
79204;SDS011;68632;47.512;19.104;2024-03-23T06:03:34;40.72;;;23.38;;
79204;SDS011;68632;47.512;19.104;2024-03-23T06:04:35;35.97;;;21.25;;
79204;SDS011;68632;47.512;19.104;2024-03-23T06:05:37;36.75;;;22.92;;
79204;SDS011;68632;47.512;19.104;2024-03-23T06:06:39;33.28;;;21.98;;
79204;SDS011;68632;47.512;19.104;2024-03-23T06:07:40;35.70;;;21.90;;
79204;SDS011;68632;47.512;19.104;2024-03-23T06:08:41;37.47;;;23.67;;
79204;SDS011;68632;47.512;19.104;2024-03-23T06:09:42;32.40;;;21.33;;
79204;SDS011;68632;47.512;19.104;2024-03-23T06:10:44;32.78;;;20.98;;
79204;SDS011;68632;47.512;19.104;2024-03-23T06:11:46;34.33;;;20.38;;
79204;SDS011;68632;47.512;19.104;2024-03-23T06:12:47;33.25;;;19.65;;
79204;SDS011;68632;47.512;19.104;2024-03-23T06:13:49;32.35;;;20.63;;
79204;SDS011;68632;47.512;19.104;2024-03-23T06:14:51;38.22;;;21.63;;
79204;SDS011;68632;47.512;19.104;2024-03-23T06:15:52;33.85;;;22.13;;
79204;SDS011;68632;47.512;19.104;2024-03-23T06:16:54;36.95;;;22.40;;
79204;SDS011;68632;47.512;19.104;2024-03-23T06:17:55;32.53;;;20.50;;
79204;SDS011;68632;47.512;19.104;2024-03-23T06:18:56;37.35;;;22.30;;
79204;SDS011;68632;47.512;19.104;2024-03-23T06:19:57;35.17;;;22.02;;
79204;SDS011;68632;47.512;19.104;2024-03-23T06:20:59;38.40;;;22.70;;
79204;SDS011;68632;47.512;19.104;2024-03-23T06:22:00;36.53;;;21.67;;
79204;SDS011;68632;47.512;19.104;2024-03-23T06:23:01;38.67;;;22.95;;
79204;SDS011;68632;47.512;19.104;2024-03-23T06:24:04;38.03;;;22.73;;
79204;SDS011;68632;47.512;19.104;2024-03-23T06:25:06;37.15;;;22.20;;
79204;SDS011;68632;47.512;19.104;2024-03-23T06:26:08;31.80;;;20.58;;
79204;SDS011;68632;47.512;19.104;2024-03-23T06:27:09;36.55;;;23.17;;
79204;SDS011;68632;47.512;19.104;2024-03-23T06:28:10;38.05;;;22.98;;
79204;SDS011;68632;47.512;19.104;2024-03-23T06:29:11;31.98;;;21.13;;
79204;SDS011;68632;47.512;19.104;2024-03-23T06:30:13;33.08;;;21.90;;
79204;SDS011;68632;47.512;19.104;2024-03-23T06:31:14;37.53;;;22.20;;
79204;SDS011;68632;47.512;19.104;2024-03-23T06:32:15;36.53;;;23.50;;
79204;SDS011;68632;47.512;19.104;2024-03-23T06:33:17;36.30;;;23.85;;
79204;SDS011;68632;47.512;19.104;2024-03-23T06:34:18;36.47;;;21.70;;
79204;SDS011;68632;47.512;19.104;2024-03-23T06:35:19;32.45;;;21.33;;
79204;SDS011;68632;47.512;19.104;2024-03-23T06:36:20;36.17;;;22.35;;
79204;SDS011;68632;47.512;19.104;2024-03-23T06:37:21;38.10;;;23.70;;
79204;SDS011;68632;47.512;19.104;2024-03-23T06:38:23;38.78;;;22.50;;
79204;SDS011;68632;47.512;19.104;2024-03-23T06:39:24;36.03;;;22.10;;
79204;SDS011;68632;47.512;19.104;2024-03-23T06:40:25;34.63;;;21.63;;
79204;SDS011;68632;47.512;19.104;2024-03-23T06:41:26;33.35;;;21.83;;
79204;SDS011;68632;47.512;19.104;2024-03-23T06:42:27;34.47;;;22.15;;
79204;SDS011;68632;47.512;19.104;2024-03-23T06:43:29;31.27;;;21.17;;
79204;SDS011;68632;47.512;19.104;2024-03-23T06:44:31;33.80;;;21.52;;
79204;SDS011;68632;47.512;19.104;2024-03-23T06:45:32;33.30;;;21.92;;
79204;SDS011;68632;47.512;19.104;2024-03-23T06:46:33;31.13;;;21.55;;
79204;SDS011;68632;47.512;19.104;2024-03-23T06:47:34;37.25;;;23.90;;
79204;SDS011;68632;47.512;19.104;2024-03-23T06:48:36;34.72;;;22.60;;
79204;SDS011;68632;47.512;19.104;2024-03-23T06:49:37;36.47;;;24.15;;